Time;durP1;ratioP1;P1;durP2;ratioP2;P2;SDS_P1;SDS_P2;PMS_P1;PMS_P2;Temp;Humidity;BMP_temperature;BMP_pressure;BME280_temperature;BME280_humidity;BME280_pressure;Samples;Min_cycle;Max_cycle;Signal;HPM_P1;HPM_P2
2023/04/08 00:02:03;;;;;;;20.77;11.32;;;3.80;99.90;;;;;;5065980;28;20450;-67
2023/04/08 00:04:30;;;;;;;20.10;11.38;;;3.80;99.90;;;;;;5066051;28;20153;-67
2023/04/08 00:06:56;;;;;;;20.83;11.50;;;3.90;99.90;;;;;;5073271;28;20047;-69
2023/04/08 00:09:22;;;;;;;20.40;10.70;;;3.80;99.90;;;;;;5072202;28;20049;-68
2023/04/08 00:11:48;;;;;;;23.77;11.73;;;3.80;99.90;;;;;;5048799;28;20471;-67
2023/04/08 00:14:17;;;;;;;21.80;11.27;;;3.80;99.90;;;;;;5065913;28;20056;-67
2023/04/08 00:16:42;;;;;;;21.98;11.85;;;3.80;99.90;;;;;;5048821;28;20093;-67
2023/04/08 00:19:08;;;;;;;22.58;12.15;;;3.70;99.90;;;;;;5049494;28;20052;-68
2023/04/08 00:21:35;;;;;;;28.05;11.85;;;3.60;99.90;;;;;;5065600;28;20044;-67
2023/04/08 00:24:03;;;;;;;21.40;12.63;;;3.60;99.90;;;;;;5059161;28;20135;-68
2023/04/08 00:26:28;;;;;;;22.42;12.40;;;3.50;99.90;;;;;;5086020;28;20326;-67
2023/04/08 00:28:54;;;;;;;22.38;12.85;;;3.50;99.90;;;;;;5069375;28;20115;-67
2023/04/08 00:31:21;;;;;;;24.40;13.43;;;3.40;99.90;;;;;;5074928;28;20086;-67
2023/04/08 00:33:56;;;;;;;25.25;13.38;;;3.40;99.90;;;;;;5086073;28;20388;-67
2023/04/08 00:36:22;;;;;;;23.40;13.40;;;3.30;99.90;;;;;;5064654;28;20503;-68
2023/04/08 00:38:48;;;;;;;22.25;13.55;;;3.30;99.90;;;;;;5065236;28;20051;-67
2023/04/08 00:41:14;;;;;;;24.45;12.73;;;3.20;99.90;;;;;;5065483;28;20456;-68
2023/04/08 00:43:40;;;;;;;21.98;13.13;;;3.20;99.90;;;;;;5055837;28;20091;-68
2023/04/08 00:46:12;;;;;;;25.20;14.15;;;3.10;99.90;;;;;;5077197;28;20068;-66
2023/04/08 00:48:38;;;;;;;25.88;13.90;;;3.10;99.90;;;;;;5065472;28;20407;-66
2023/04/08 00:51:07;;;;;;;25.42;15.13;;;3.00;99.90;;;;;;5064992;28;20036;-67
2023/04/08 00:53:33;;;;;;;25.30;14.90;;;3.00;99.90;;;;;;5071106;28;20054;-66
2023/04/08 00:56:00;;;;;;;23.65;14.93;;;3.00;99.90;;;;;;5084978;28;20038;-67
2023/04/08 00:58:27;;;;;;;28.42;16.10;;;3.00;99.90;;;;;;5068916;28;20567;-67
2023/04/08 01:01:13;;;;;;;29.52;15.93;;;3.00;99.90;;;;;;5048248;28;20134;-67
2023/04/08 01:04:00;;;;;;;29.35;15.82;;;3.00;99.90;;;;;;5048554;28;20044;-67
2023/04/08 01:06:45;;;;;;;26.95;14.95;;;3.00;99.90;;;;;;5064932;28;20656;-66
2023/04/08 01:09:12;;;;;;;31.17;16.73;;;3.00;99.90;;;;;;5048148;28;20135;-67
2023/04/08 01:11:43;;;;;;;27.42;15.88;;;3.00;99.90;;;;;;5065166;28;20036;-67
2023/04/08 01:14:15;;;;;;;31.42;16.98;;;3.00;99.90;;;;;;5064677;28;20070;-67
2023/04/08 01:16:43;;;;;;;29.75;16.45;;;3.00;99.90;;;;;;5059585;28;20051;-67
2023/04/08 01:19:30;;;;;;;28.98;15.98;;;2.90;99.90;;;;;;5085127;28;20394;-67
2023/04/08 01:22:07;;;;;;;30.30;16.27;;;2.90;99.90;;;;;;5075917;28;20036;-67
2023/04/08 01:24:39;;;;;;;28.35;16.60;;;2.90;99.90;;;;;;5064353;28;20339;-67
2023/04/08 01:27:12;;;;;;;33.25;17.00;;;2.80;99.90;;;;;;5064739;28;20036;-67
2023/04/08 01:29:46;;;;;;;31.98;17.00;;;2.80;99.90;;;;;;5064606;28;20036;-67
2023/04/08 01:32:16;;;;;;;27.50;15.38;;;2.80;99.90;;;;;;5048171;28;20263;-67
2023/04/08 01:34:45;;;;;;;33.70;17.10;;;2.70;99.90;;;;;;5064871;28;20477;-67
2023/04/08 01:37:12;;;;;;;31.80;17.58;;;2.70;99.90;;;;;;5064129;28;20411;-67
2023/04/08 01:39:43;;;;;;;31.92;17.65;;;2.70;99.90;;;;;;5047814;28;20048;-68
2023/04/08 01:42:28;;;;;;;34.35;18.52;;;2.70;99.90;;;;;;5064606;28;20076;-67
2023/04/08 01:45:00;;;;;;;38.08;17.92;;;2.70;99.90;;;;;;5054656;28;20067;-68
2023/04/08 01:47:28;;;;;;;33.03;18.15;;;2.60;99.90;;;;;;5081618;28;20067;-67
2023/04/08 01:49:57;;;;;;;36.38;18.77;;;2.60;99.90;;;;;;5084580;28;20055;-68
2023/04/08 01:52:25;;;;;;;34.67;19.20;;;2.60;99.90;;;;;;5055372;28;20411;-67
2023/04/08 01:55:01;;;;;;;32.92;18.85;;;2.50;99.90;;;;;;5064209;28;20535;-67
2023/04/08 01:57:30;;;;;;;36.72;19.63;;;2.50;99.90;;;;;;5081384;28;20115;-67
2023/04/08 02:00:00;;;;;;;39.85;20.40;;;2.50;99.90;;;;;;5067312;28;20059;-67
2023/04/08 02:02:27;;;;;;;34.25;19.05;;;2.50;99.90;;;;;;5048699;28;20472;-67
2023/04/08 02:04:54;;;;;;;40.42;20.70;;;2.50;99.90;;;;;;5067681;28;20131;-67
2023/04/08 02:07:23;;;;;;;39.92;20.65;;;2.50;99.90;;;;;;5065229;28;20067;-66
2023/04/08 02:10:00;;;;;;;40.00;21.23;;;2.50;99.90;;;;;;5050211;28;20062;-66
2023/04/08 02:12:33;;;;;;;39.60;19.55;;;2.50;99.90;;;;;;5047426;28;20507;-66
2023/04/08 02:15:04;;;;;;;38.90;20.65;;;2.60;99.90;;;;;;5069230;28;20039;-67
2023/04/08 02:17:45;;;;;;;40.40;22.15;;;2.60;99.90;;;;;;5047953;28;20400;-66
2023/04/08 02:20:38;;;;;;;35.27;19.93;;;2.60;99.90;;;;;;5063980;28;20278;-67
2023/04/08 02:23:13;;;;;;;43.55;20.52;;;2.60;99.90;;;;;;5047324;28;20111;-67
2023/04/08 02:25:42;;;;;;;39.70;21.42;;;2.60;99.90;;;;;;5046974;28;20146;-67
2023/04/08 02:28:10;;;;;;;39.05;21.38;;;2.60;99.90;;;;;;5063414;28;20651;-66
2023/04/08 02:30:40;;;;;;;42.58;22.60;;;2.60;99.90;;;;;;5063771;28;20127;-66
2023/04/08 02:33:07;;;;;;;40.05;22.25;;;2.60;99.90;;;;;;5063899;28;20154;-67
2023/04/08 02:35:34;;;;;;;42.70;22.48;;;2.60;99.90;;;;;;5064677;28;20391;-66
2023/04/08 02:38:00;;;;;;;39.65;20.98;;;2.50;99.90;;;;;;5081136;28;20402;-66
2023/04/08 02:40:30;;;;;;;39.95;22.27;;;2.50;99.90;;;;;;5067604;28;20040;-67
2023/04/08 02:43:01;;;;;;;42.72;22.00;;;2.50;99.90;;;;;;5068077;28;20526;-67
2023/04/08 02:45:30;;;;;;;37.95;20.75;;;2.50;99.90;;;;;;5051274;28;20051;-66
2023/04/08 02:47:58;;;;;;;43.03;22.83;;;2.50;99.90;;;;;;5067830;28;20137;-67
2023/04/08 02:50:24;;;;;;;45.03;22.65;;;2.50;99.90;;;;;;5067581;28;20377;-66
2023/04/08 02:52:50;;;;;;;46.90;23.25;;;2.40;99.90;;;;;;5080467;28;20044;-67
2023/04/08 02:55:16;;;;;;;47.95;24.25;;;2.40;99.90;;;;;;5067507;28;20052;-66
2023/04/08 02:57:42;;;;;;;42.72;22.40;;;2.50;99.90;;;;;;5084128;28;20476;-65
2023/04/08 03:00:09;;;;;;;46.00;23.60;;;2.40;99.90;;;;;;5067095;28;20092;-66
2023/04/08 03:02:35;;;;;;;46.63;21.48;;;2.50;99.90;;;;;;5083310;28;20032;-67
2023/04/08 03:05:04;;;;;;;53.65;25.05;;;2.50;99.90;;;;;;5067231;28;20325;-67
2023/04/08 03:07:35;;;;;;;44.30;24.33;;;2.50;99.90;;;;;;5067143;28;20051;-65
2023/04/08 03:10:02;;;;;;;46.38;22.23;;;2.50;99.90;;;;;;5085016;28;20526;-66
2023/04/08 03:12:28;;;;;;;44.13;23.30;;;2.40;99.90;;;;;;5087490;28;20381;-66
2023/04/08 03:14:57;;;;;;;46.58;24.92;;;2.40;99.90;;;;;;5086693;28;20060;-66
2023/04/08 03:17:25;;;;;;;45.78;24.35;;;2.40;99.90;;;;;;5068651;28;20044;-66
2023/04/08 03:19:53;;;;;;;49.47;24.70;;;2.30;99.90;;;;;;5083989;28;20114;-67
2023/04/08 03:22:23;;;;;;;42.55;22.63;;;2.30;99.90;;;;;;5050099;28;20131;-66
2023/04/08 03:24:49;;;;;;;43.00;22.23;;;2.30;99.90;;;;;;5066818;28;20518;-66
2023/04/08 03:27:15;;;;;;;49.78;25.05;;;2.30;99.90;;;;;;5049772;28;20041;-65
2023/04/08 03:29:41;;;;;;;60.50;26.13;;;2.30;99.90;;;;;;5050274;28;20052;-66
2023/04/08 03:32:07;;;;;;;49.25;24.65;;;2.30;99.90;;;;;;5066865;28;20048;-66
2023/04/08 03:34:36;;;;;;;55.08;26.02;;;2.20;99.90;;;;;;5049850;28;20079;-67
2023/04/08 03:37:02;;;;;;;49.88;25.67;;;2.20;99.90;;;;;;5066039;28;20498;-67
2023/04/08 03:39:37;;;;;;;49.97;24.98;;;2.30;99.90;;;;;;5050023;28;20409;-65
2023/04/08 03:42:08;;;;;;;54.83;25.40;;;2.30;99.90;;;;;;5050626;28;20044;-65
2023/04/08 03:44:36;;;;;;;54.47;26.08;;;2.30;99.90;;;;;;5049097;28;20114;-66
2023/04/08 03:47:02;;;;;;;55.60;25.50;;;2.20;99.90;;;;;;5070598;28;20122;-66
2023/04/08 03:49:31;;;;;;;45.03;23.45;;;2.30;99.90;;;;;;5086667;28;20232;-66
2023/04/08 03:52:00;;;;;;;53.30;25.63;;;2.30;99.90;;;;;;5085829;28;20040;-65
2023/04/08 03:54:26;;;;;;;54.60;26.83;;;2.20;99.90;;;;;;5056064;28;20495;-67
2023/04/08 03:56:52;;;;;;;61.28;27.80;;;2.20;99.90;;;;;;5065929;28;20051;-65
2023/04/08 03:59:18;;;;;;;57.47;26.20;;;2.30;99.90;;;;;;5066198;28;20052;-66
2023/04/08 04:01:45;;;;;;;56.10;26.90;;;2.30;99.90;;;;;;5078012;28;20075;-65
2023/04/08 04:04:11;;;;;;;62.67;27.45;;;2.30;99.90;;;;;;5086397;28;20048;-66
2023/04/08 04:06:37;;;;;;;62.30;28.15;;;2.30;99.90;;;;;;5081934;28;20502;-65
2023/04/08 04:09:03;;;;;;;62.63;28.95;;;2.30;99.90;;;;;;5049089;28;20487;-66
2023/04/08 04:11:29;;;;;;;72.13;29.65;;;2.40;99.90;;;;;;5066395;28;20479;-66
2023/04/08 04:13:55;;;;;;;66.15;28.75;;;2.40;99.90;;;;;;5066429;28;20049;-67
2023/04/08 04:16:21;;;;;;;68.57;31.02;;;2.50;99.90;;;;;;5065397;28;20056;-66
2023/04/08 04:18:51;;;;;;;69.30;29.83;;;2.50;99.90;;;;;;5049732;28;20059;-67
2023/04/08 04:21:18;;;;;;;72.20;30.63;;;2.60;99.90;;;;;;5065924;28;20044;-66
2023/04/08 04:23:44;;;;;;;72.65;29.90;;;2.60;99.90;;;;;;5049185;28;20052;-67
2023/04/08 04:26:12;;;;;;;67.28;30.27;;;2.60;99.90;;;;;;5066271;28;20051;-67
2023/04/08 04:28:38;;;;;;;72.82;32.33;;;2.70;99.90;;;;;;5049403;28;20499;-67
2023/04/08 04:31:04;;;;;;;68.63;29.88;;;2.70;99.90;;;;;;5082326;28;20044;-67
2023/04/08 04:33:33;;;;;;;72.32;30.17;;;2.70;99.90;;;;;;5065746;28;20541;-67
2023/04/08 04:35:59;;;;;;;64.90;30.88;;;2.80;99.90;;;;;;5049075;28;20032;-66
2023/04/08 04:38:25;;;;;;;71.75;31.20;;;2.80;99.90;;;;;;5070026;28;20048;-67
2023/04/08 04:40:55;;;;;;;75.45;30.85;;;2.80;99.90;;;;;;5069610;28;20039;-67
2023/04/08 04:43:21;;;;;;;72.82;30.05;;;2.90;99.90;;;;;;5081237;28;20048;-67
2023/04/08 04:45:47;;;;;;;68.95;31.30;;;2.80;99.90;;;;;;5065277;28;20400;-67
2023/04/08 04:48:15;;;;;;;72.22;30.02;;;2.90;99.90;;;;;;5049642;28;20413;-67
2023/04/08 04:50:41;;;;;;;73.32;30.60;;;2.90;99.90;;;;;;5071989;28;20117;-66
2023/04/08 04:53:07;;;;;;;74.40;30.65;;;2.90;99.90;;;;;;5048531;28;20036;-67
2023/04/08 04:55:36;;;;;;;71.68;29.70;;;2.90;99.90;;;;;;5065677;28;20044;-66
2023/04/08 04:58:02;;;;;;;72.70;28.40;;;2.90;99.90;;;;;;5065177;28;20045;-66
2023/04/08 05:00:28;;;;;;;61.13;28.40;;;2.90;99.90;;;;;;5064700;28;20049;-66
2023/04/08 05:02:54;;;;;;;67.05;28.65;;;2.90;99.90;;;;;;5065030;28;20158;-67
2023/04/08 05:05:20;;;;;;;62.95;28.80;;;2.90;99.90;;;;;;5081598;28;20106;-70
2023/04/08 05:07:49;;;;;;;69.28;30.67;;;2.90;99.90;;;;;;5065054;28;20541;-66
2023/04/08 05:10:15;;;;;;;72.30;30.67;;;2.90;99.90;;;;;;5068430;28;20498;-67
2023/04/08 05:12:41;;;;;;;76.18;30.77;;;2.90;99.90;;;;;;5068307;28;20148;-67
2023/04/08 05:15:07;;;;;;;72.53;31.17;;;2.90;99.90;;;;;;5074399;28;20093;-66
2023/04/08 05:17:33;;;;;;;73.35;31.55;;;2.90;99.90;;;;;;5066355;28;20462;-66
2023/04/08 05:19:59;;;;;;;71.78;31.10;;;3.00;99.90;;;;;;5085439;28;20136;-68
2023/04/08 05:22:25;;;;;;;68.63;29.48;;;3.10;99.90;;;;;;5065887;28;20040;-66
2023/04/08 05:24:51;;;;;;;70.75;30.35;;;3.20;99.90;;;;;;5051232;28;20052;-66
2023/04/08 05:27:18;;;;;;;79.05;33.78;;;3.20;99.90;;;;;;5064891;28;20063;-66
2023/04/08 05:29:47;;;;;;;70.18;32.95;;;3.30;99.90;;;;;;5048447;28;20381;-68
2023/04/08 05:32:15;;;;;;;75.72;33.60;;;3.40;99.90;;;;;;5064712;28;20039;-67
2023/04/08 05:34:41;;;;;;;72.65;33.60;;;3.50;99.90;;;;;;5066106;28;20538;-67
2023/04/08 05:37:07;;;;;;;72.97;31.15;;;3.70;99.90;;;;;;5065259;28;20041;-67
2023/04/08 05:39:36;;;;;;;69.65;31.80;;;3.80;99.90;;;;;;5064711;28;20390;-67
2023/04/08 05:42:05;;;;;;;64.65;31.20;;;4.00;99.90;;;;;;5064311;28;20036;-67
2023/04/08 05:44:31;;;;;;;66.70;31.52;;;4.10;99.90;;;;;;5048052;28;20044;-70
2023/04/08 05:46:59;;;;;;;69.82;31.58;;;4.10;99.90;;;;;;5064482;28;20150;-67
2023/04/08 05:49:25;;;;;;;60.72;30.60;;;4.20;99.90;;;;;;5064276;28;20040;-67
2023/04/08 05:51:53;;;;;;;59.33;30.38;;;4.30;99.90;;;;;;5048361;28;20415;-67
2023/04/08 05:54:19;;;;;;;55.85;29.83;;;4.30;99.90;;;;;;5070065;28;20035;-68
2023/04/08 05:56:48;;;;;;;59.47;30.35;;;4.40;99.90;;;;;;5076228;28;20419;-66
2023/04/08 05:59:14;;;;;;;55.17;28.77;;;4.40;99.90;;;;;;5060200;28;20052;-68
2023/04/08 06:01:46;;;;;;;63.67;31.02;;;4.40;99.90;;;;;;5063338;28;20815;-66
2023/04/08 06:04:12;;;;;;;62.85;31.55;;;4.50;99.90;;;;;;5084941;28;20513;-66
2023/04/08 06:06:44;;;;;;;63.38;31.42;;;4.50;99.90;;;;;;5080014;28;20083;-67
2023/04/08 06:09:10;;;;;;;56.70;30.98;;;4.70;99.90;;;;;;5064203;28;20546;-67
2023/04/08 06:11:36;;;;;;;60.55;30.38;;;4.70;99.90;;;;;;5096982;28;20094;-67
2023/04/08 06:14:05;;;;;;;61.80;30.70;;;4.90;99.90;;;;;;5068560;28;20041;-67
2023/04/08 06:16:34;;;;;;;57.20;30.77;;;4.90;99.90;;;;;;5063880;28;20101;-67
2023/04/08 06:19:00;;;;;;;57.38;29.80;;;4.90;99.90;;;;;;5080837;28;20048;-66
2023/04/08 06:21:26;;;;;;;57.15;28.75;;;4.90;99.90;;;;;;5064806;28;20369;-68
2023/04/08 06:23:52;;;;;;;56.72;29.27;;;5.00;99.90;;;;;;5066564;28;20119;-68
2023/04/08 06:26:18;;;;;;;51.90;28.50;;;5.00;99.90;;;;;;5067454;28;20127;-67
2023/04/08 06:28:44;;;;;;;52.85;28.25;;;5.00;99.90;;;;;;5065305;28;20108;-66
2023/04/08 06:31:10;;;;;;;56.75;29.73;;;5.10;99.90;;;;;;5063877;28;20044;-67
2023/04/08 06:33:36;;;;;;;50.53;28.63;;;5.30;99.90;;;;;;5047740;28;20040;-67
2023/04/08 06:36:06;;;;;;;46.08;27.73;;;5.50;99.90;;;;;;5046898;28;20036;-68
2023/04/08 06:38:33;;;;;;;49.03;26.63;;;5.60;99.90;;;;;;5080556;28;20124;-67
2023/04/08 06:41:03;;;;;;;45.25;26.50;;;5.70;99.90;;;;;;5063968;28;20131;-69
2023/04/08 06:43:30;;;;;;;44.53;24.52;;;5.80;99.90;;;;;;5063878;28;20047;-67
2023/04/08 06:46:02;;;;;;;42.38;25.38;;;5.90;99.90;;;;;;5046631;28;20040;-67
2023/04/08 06:48:29;;;;;;;37.97;22.77;;;6.20;99.90;;;;;;5059073;28;20043;-67
2023/04/08 06:50:59;;;;;;;34.80;22.50;;;6.40;99.90;;;;;;5067685;28;20407;-70
2023/04/08 06:53:28;;;;;;;34.03;21.75;;;6.60;99.90;;;;;;5061429;28;20083;-68
2023/04/08 06:55:54;;;;;;;39.33;22.88;;;6.70;99.90;;;;;;5063490;28;20040;-67
2023/04/08 06:58:30;;;;;;;40.90;23.48;;;6.80;99.90;;;;;;5066771;28;20048;-68
2023/04/08 07:00:56;;;;;;;33.50;20.48;;;6.80;99.90;;;;;;5062477;28;20277;-71
2023/04/08 07:03:22;;;;;;;37.22;21.90;;;6.80;99.90;;;;;;5065749;28;20051;-67
2023/04/08 07:05:48;;;;;;;37.22;21.25;;;6.80;99.90;;;;;;5075082;28;20565;-68
2023/04/08 07:08:14;;;;;;;32.08;20.35;;;6.90;99.90;;;;;;5047261;28;20162;-68
2023/04/08 07:10:44;;;;;;;35.10;21.90;;;7.00;99.90;;;;;;5063636;28;20244;-70
2023/04/08 07:13:11;;;;;;;31.95;19.92;;;6.90;99.90;;;;;;5078104;28;20154;-69
2023/04/08 07:15:37;;;;;;;33.92;21.05;;;6.80;99.90;;;;;;5063732;28;20526;-68
2023/04/08 07:18:03;;;;;;;34.25;20.83;;;6.80;99.90;;;;;;5083335;28;20028;-69
2023/04/08 07:20:30;;;;;;;34.80;22.20;;;6.60;99.90;;;;;;5066284;28;20054;-70
2023/04/08 07:22:55;;;;;;;35.10;21.27;;;6.50;99.90;;;;;;5084732;28;20043;-68
2023/04/08 07:25:21;;;;;;;32.15;20.13;;;6.60;99.90;;;;;;5084862;28;20054;-70
2023/04/08 07:27:47;;;;;;;30.15;19.30;;;6.70;99.90;;;;;;5070359;28;20242;-67
2023/04/08 07:30:13;;;;;;;31.80;19.58;;;6.80;99.90;;;;;;5065827;28;20037;-66
2023/04/08 07:32:39;;;;;;;32.35;19.35;;;6.90;99.90;;;;;;5071867;28;20101;-67
2023/04/08 07:35:06;;;;;;;30.02;19.10;;;7.20;99.90;;;;;;5076735;28;20073;-66
2023/04/08 07:37:34;;;;;;;29.30;17.20;;;7.40;99.90;;;;;;5068022;28;20418;-67
2023/04/08 07:40:01;;;;;;;28.83;17.63;;;7.50;99.90;;;;;;5053207;28;20044;-70
2023/04/08 07:42:27;;;;;;;27.98;17.23;;;7.40;99.90;;;;;;5076725;28;21707;-70
2023/04/08 07:44:56;;;;;;;32.38;18.10;;;7.20;99.90;;;;;;5070324;28;20040;-68
2023/04/08 07:47:24;;;;;;;32.63;18.40;;;7.20;99.90;;;;;;5085412;28;20048;-68
2023/04/08 07:49:51;;;;;;;30.17;19.15;;;7.30;99.90;;;;;;5086640;28;20081;-66
2023/04/08 07:52:17;;;;;;;29.95;18.98;;;7.60;99.90;;;;;;5084013;28;20119;-67
2023/04/08 07:54:42;;;;;;;28.13;17.10;;;7.60;99.90;;;;;;5065882;28;20473;-66
2023/04/08 07:57:08;;;;;;;28.38;17.05;;;7.50;99.90;;;;;;5066484;28;20046;-67
2023/04/08 07:59:34;;;;;;;26.20;17.55;;;7.40;99.90;;;;;;5074220;28;20057;-65
2023/04/08 08:02:09;;;;;;;28.88;16.77;;;7.80;99.90;;;;;;5066335;28;20056;-66
2023/04/08 08:04:35;;;;;;;24.42;16.88;;;8.10;99.90;;;;;;5049915;28;20474;-67
2023/04/08 08:07:01;;;;;;;23.90;16.42;;;8.60;99.90;;;;;;5066337;28;20044;-66
2023/04/08 08:09:35;;;;;;;25.70;17.20;;;9.10;99.90;;;;;;5049890;28;20037;-67
2023/04/08 08:12:01;;;;;;;25.88;17.17;;;9.30;99.90;;;;;;5066262;28;20048;-67
2023/04/08 08:14:27;;;;;;;26.20;17.55;;;8.90;99.90;;;;;;5066641;28;20518;-67
2023/04/08 08:16:53;;;;;;;24.52;16.55;;;8.90;99.90;;;;;;5052635;28;20627;-66
2023/04/08 08:19:22;;;;;;;26.95;16.17;;;8.70;99.90;;;;;;5086372;28;20109;-67
2023/04/08 08:21:51;;;;;;;25.35;16.70;;;8.70;99.90;;;;;;5082671;28;20122;-67
2023/04/08 08:24:17;;;;;;;25.73;16.50;;;8.60;99.90;;;;;;5083950;28;20058;-68
2023/04/08 08:26:44;;;;;;;26.55;17.63;;;8.60;99.90;;;;;;5086363;28;20487;-66
2023/04/08 08:29:16;;;;;;;25.80;17.67;;;8.40;99.90;;;;;;5069403;28;20054;-67
2023/04/08 08:31:42;;;;;;;26.65;17.60;;;8.40;99.90;;;;;;5064835;28;20050;-68
2023/04/08 08:34:08;;;;;;;26.40;16.35;;;8.10;99.90;;;;;;5065372;28;20052;-66
2023/04/08 08:36:35;;;;;;;27.55;18.17;;;7.90;99.90;;;;;;5065340;28;20036;-67
2023/04/08 08:39:01;;;;;;;29.00;19.25;;;7.80;99.90;;;;;;5049203;28;20052;-67
2023/04/08 08:41:34;;;;;;;29.08;17.55;;;7.70;99.90;;;;;;5049536;28;20052;-67
2023/04/08 08:44:01;;;;;;;27.27;17.98;;;7.90;99.90;;;;;;5065668;28;20079;-68
2023/04/08 08:46:27;;;;;;;29.52;18.38;;;7.90;99.90;;;;;;5073602;28;20036;-65
2023/04/08 08:48:54;;;;;;;31.00;17.90;;;7.90;99.90;;;;;;5068592;28;20040;-67
2023/04/08 08:51:20;;;;;;;25.90;17.23;;;8.00;99.90;;;;;;5072852;28;20346;-65
2023/04/08 08:53:46;;;;;;;28.60;17.98;;;7.90;99.90;;;;;;5080273;28;20041;-68
2023/04/08 08:56:15;;;;;;;28.45;18.15;;;8.00;99.90;;;;;;5065629;28;20037;-66
2023/04/08 08:58:41;;;;;;;26.27;17.77;;;7.90;99.90;;;;;;5065514;28;20036;-67
2023/04/08 09:01:36;;;;;;;28.50;17.95;;;7.70;99.90;;;;;;5048709;28;20447;-66
2023/04/08 09:04:19;;;;;;;26.92;18.60;;;7.40;99.90;;;;;;5048938;28;20052;-66
2023/04/08 09:07:03;;;;;;;28.60;17.95;;;7.20;99.90;;;;;;5066709;28;20212;-66
2023/04/08 09:09:50;;;;;;;27.75;18.05;;;7.30;99.90;;;;;;5076960;28;20047;-67
2023/04/08 09:12:16;;;;;;;30.17;18.20;;;7.30;99.90;;;;;;5068766;28;20160;-66
2023/04/08 09:14:43;;;;;;;32.72;18.80;;;7.20;99.90;;;;;;5068852;28;20067;-68
2023/04/08 09:17:09;;;;;;;29.88;18.40;;;7.10;99.90;;;;;;5066778;28;20043;-66
2023/04/08 09:19:35;;;;;;;29.27;17.98;;;7.10;99.90;;;;;;5068682;28;20047;-67
2023/04/08 09:22:30;;;;;;;29.67;18.00;;;7.10;99.90;;;;;;5061463;28;20044;-67
2023/04/08 09:24:56;;;;;;;30.58;18.35;;;7.20;99.90;;;;;;5063791;28;20300;-66
2023/04/08 09:27:40;;;;;;;28.55;17.60;;;7.20;99.90;;;;;;5048143;28;20140;-66
2023/04/08 09:30:32;;;;;;;30.20;18.55;;;7.40;99.90;;;;;;5064049;28;20095;-68
2023/04/08 09:33:00;;;;;;;24.67;16.48;;;7.50;99.90;;;;;;5046202;28;20110;-67
2023/04/08 09:35:28;;;;;;;25.63;14.93;;;7.60;99.90;;;;;;5067186;28;20072;-66
2023/04/08 09:37:57;;;;;;;23.17;14.30;;;7.90;99.90;;;;;;5072965;28;20040;-66
2023/04/08 09:40:27;;;;;;;22.63;12.70;;;8.10;99.90;;;;;;5084235;28;20477;-66
2023/04/08 09:43:00;;;;;;;20.83;13.38;;;8.30;99.90;;;;;;5060862;28;20144;-66
2023/04/08 09:45:27;;;;;;;25.00;15.48;;;8.40;99.90;;;;;;5064030;28;20044;-65
2023/04/08 09:48:09;;;;;;;25.02;15.40;;;8.60;99.90;;;;;;5064238;28;20040;-67
2023/04/08 09:50:44;;;;;;;24.58;14.82;;;8.70;99.90;;;;;;5064703;28;20033;-67
2023/04/08 09:53:19;;;;;;;23.98;14.90;;;8.70;99.90;;;;;;5065399;28;20131;-66
2023/04/08 09:55:52;;;;;;;24.33;14.18;;;8.50;99.90;;;;;;5047828;28;20054;-68
2023/04/08 09:58:26;;;;;;;20.75;12.73;;;8.50;99.90;;;;;;5063541;28;20071;-66
2023/04/08 10:00:54;;;;;;;23.02;13.45;;;8.30;99.90;;;;;;5063706;28;20094;-66
2023/04/08 10:03:38;;;;;;;21.30;12.82;;;8.30;99.90;;;;;;5064277;28;20491;-67
2023/04/08 10:06:07;;;;;;;20.83;12.68;;;8.20;99.90;;;;;;5047289;28;20457;-67
2023/04/08 10:08:42;;;;;;;22.70;13.27;;;8.10;99.90;;;;;;5064556;28;20037;-66
2023/04/08 10:11:09;;;;;;;20.88;13.07;;;8.10;99.90;;;;;;5064432;28;20407;-67
2023/04/08 10:13:37;;;;;;;21.80;12.63;;;8.10;99.90;;;;;;5065495;28;20341;-66
2023/04/08 10:16:20;;;;;;;23.77;12.98;;;8.10;99.90;;;;;;5064288;28;20072;-66
2023/04/08 10:18:48;;;;;;;21.27;12.88;;;8.10;99.90;;;;;;5064613;28;20063;-67
2023/04/08 10:21:37;;;;;;;20.63;13.02;;;8.20;99.90;;;;;;5064273;28;20495;-67
2023/04/08 10:24:10;;;;;;;22.00;12.73;;;8.40;99.90;;;;;;5064085;28;20047;-65
2023/04/08 10:26:44;;;;;;;20.60;11.95;;;8.50;99.90;;;;;;5064083;28;20039;-66
2023/04/08 10:29:28;;;;;;;22.05;12.75;;;8.70;99.90;;;;;;5064216;28;20442;-66
2023/04/08 10:32:00;;;;;;;23.63;13.30;;;8.70;99.90;;;;;;5063989;28;20346;-67
2023/04/08 10:34:26;;;;;;;22.05;12.85;;;8.60;99.90;;;;;;5047301;28;20047;-66
2023/04/08 10:36:57;;;;;;;19.73;12.73;;;8.70;99.90;;;;;;5063397;28;20178;-66
2023/04/08 10:39:24;;;;;;;22.00;13.73;;;8.70;99.90;;;;;;5063367;28;20541;-66
2023/04/08 10:41:50;;;;;;;22.27;14.55;;;8.90;99.90;;;;;;5063724;28;20044;-67
2023/04/08 10:44:22;;;;;;;25.85;14.38;;;8.90;99.90;;;;;;5082227;28;20040;-67
2023/04/08 10:46:50;;;;;;;29.40;15.70;;;9.00;99.90;;;;;;5055683;28;20029;-67
2023/04/08 10:49:16;;;;;;;22.05;13.65;;;9.10;99.90;;;;;;5047447;28;20090;-66
2023/04/08 10:51:43;;;;;;;23.42;13.98;;;9.30;99.90;;;;;;5063883;28;20053;-67
2023/04/08 10:54:11;;;;;;;22.30;13.35;;;9.30;99.90;;;;;;5064697;28;20040;-67
2023/04/08 10:56:48;;;;;;;25.80;15.60;;;9.40;99.90;;;;;;5064855;28;20048;-67
2023/04/08 10:59:16;;;;;;;25.88;15.18;;;9.40;99.90;;;;;;5069613;28;20403;-67
2023/04/08 11:01:45;;;;;;;25.35;16.00;;;9.50;99.90;;;;;;5076954;28;20438;-67
2023/04/08 11:04:17;;;;;;;28.75;17.48;;;9.50;99.90;;;;;;5067475;28;20052;-68
2023/04/08 11:06:44;;;;;;;34.00;18.67;;;9.50;99.90;;;;;;5068656;28;20094;-67
2023/04/08 11:09:10;;;;;;;31.33;18.67;;;9.50;99.90;;;;;;5067508;28;20463;-66
2023/04/08 11:11:37;;;;;;;31.33;18.33;;;9.40;99.90;;;;;;5050785;28;20041;-69
2023/04/08 11:14:03;;;;;;;29.08;18.65;;;9.30;99.90;;;;;;5051304;28;20032;-66
2023/04/08 11:16:33;;;;;;;42.90;22.92;;;9.40;99.90;;;;;;5068399;28;20048;-71
2023/04/08 11:19:02;;;;;;;40.38;22.60;;;9.40;99.90;;;;;;5088470;28;20202;-70
2023/04/08 11:21:29;;;;;;;42.15;27.33;;;9.40;99.90;;;;;;5086984;28;20032;-68
2023/04/08 11:24:05;;;;;;;45.78;28.15;;;9.50;99.90;;;;;;5054045;28;20035;-69
2023/04/08 11:26:32;;;;;;;41.53;24.13;;;9.50;99.90;;;;;;5068003;28;20089;-69
2023/04/08 11:28:59;;;;;;;41.08;24.80;;;9.50;99.90;;;;;;5067991;28;20040;-68
2023/04/08 11:31:26;;;;;;;46.88;28.27;;;9.50;99.90;;;;;;5067191;28;20398;-69
2023/04/08 11:34:04;;;;;;;45.53;26.50;;;9.50;99.90;;;;;;5067954;28;20052;-71
2023/04/08 11:36:30;;;;;;;41.60;24.00;;;9.50;99.90;;;;;;5067433;28;20049;-68
2023/04/08 11:38:56;;;;;;;43.85;24.60;;;9.40;99.90;;;;;;5054628;28;20105;-68
2023/04/08 11:41:36;;;;;;;43.90;24.98;;;9.30;99.90;;;;;;5051405;28;20032;-66
2023/04/08 11:44:02;;;;;;;45.80;25.13;;;9.20;99.90;;;;;;5050370;28;20040;-66
2023/04/08 11:46:28;;;;;;;41.88;24.45;;;9.10;99.90;;;;;;5075850;28;20566;-68
2023/04/08 11:49:02;;;;;;;49.58;26.88;;;9.10;99.90;;;;;;5051104;28;20127;-70
2023/04/08 11:51:28;;;;;;;48.17;26.58;;;9.20;99.90;;;;;;5050935;28;20298;-68
2023/04/08 11:53:54;;;;;;;42.70;25.33;;;9.20;99.90;;;;;;5056164;28;20055;-67
2023/04/08 11:56:29;;;;;;;42.30;23.98;;;9.20;99.90;;;;;;5070795;28;20494;-68
2023/04/08 11:58:55;;;;;;;43.72;23.58;;;9.20;99.90;;;;;;5070398;28;20036;-69
2023/04/08 12:01:21;;;;;;;40.95;22.92;;;9.20;99.90;;;;;;5063315;28;20147;-67
2023/04/08 12:03:55;;;;;;;38.92;22.23;;;9.20;99.90;;;;;;5067975;28;20137;-70
2023/04/08 12:06:26;;;;;;;38.30;21.15;;;9.30;99.90;;;;;;5067103;28;20052;-68
2023/04/08 12:08:53;;;;;;;33.75;20.65;;;9.30;99.90;;;;;;5049577;28;20040;-68
2023/04/08 12:11:18;;;;;;;39.65;22.67;;;9.20;99.90;;;;;;5061048;28;21080;-66
2023/04/08 12:13:48;;;;;;;33.83;19.95;;;9.20;99.90;;;;;;5068209;28;20051;-70
2023/04/08 12:16:14;;;;;;;38.47;21.05;;;9.20;99.90;;;;;;5063114;28;20036;-67
2023/04/08 12:18:40;;;;;;;40.08;22.58;;;9.10;99.90;;;;;;5058210;28;20259;-68
2023/04/08 12:21:13;;;;;;;42.67;21.90;;;9.10;99.90;;;;;;5074988;28;20606;-65
2023/04/08 12:23:39;;;;;;;37.43;21.23;;;9.10;99.90;;;;;;5050175;28;20255;-65
2023/04/08 12:26:06;;;;;;;40.47;23.10;;;9.10;99.90;;;;;;5065400;28;20294;-64
2023/04/08 12:28:33;;;;;;;38.78;21.92;;;9.10;99.90;;;;;;5049355;28;20077;-66
2023/04/08 12:31:05;;;;;;;36.65;22.08;;;9.10;99.90;;;;;;5065653;28;20496;-66
2023/04/08 12:33:31;;;;;;;38.08;21.77;;;9.10;99.90;;;;;;5067908;28;20044;-66
2023/04/08 12:36:00;;;;;;;38.20;23.35;;;9.10;99.90;;;;;;5086097;28;20040;-67
2023/04/08 12:38:26;;;;;;;39.95;22.55;;;9.10;99.90;;;;;;5069306;28;20037;-66
2023/04/08 12:40:55;;;;;;;36.72;21.85;;;9.20;99.90;;;;;;5048933;28;20049;-65
2023/04/08 12:43:29;;;;;;;36.80;21.58;;;9.20;99.90;;;;;;5072757;28;20518;-66
2023/04/08 12:45:55;;;;;;;38.20;22.95;;;9.20;99.90;;;;;;5065145;28;20229;-67